sensor_id;sensor_type;location;lat;lon;timestamp;P1;durP1;ratioP1;P2;durP2;ratioP2
49015;SDS011;34830;44.064;12.566;2023-08-06T00:01:05;1.30;;;0.20;;
49015;SDS011;34830;44.064;12.566;2023-08-06T00:03:31;2.63;;;0.40;;
49015;SDS011;34830;44.064;12.566;2023-08-06T00:05:57;1.17;;;0.30;;
49015;SDS011;34830;44.064;12.566;2023-08-06T00:08:23;1.52;;;0.10;;
49015;SDS011;34830;44.064;12.566;2023-08-06T00:10:49;0.17;;;0.10;;
49015;SDS011;34830;44.064;12.566;2023-08-06T00:13:15;1.17;;;0.30;;
49015;SDS011;34830;44.064;12.566;2023-08-06T00:15:42;0.35;;;0.13;;
49015;SDS011;34830;44.064;12.566;2023-08-06T00:18:08;0.57;;;0.10;;
49015;SDS011;34830;44.064;12.566;2023-08-06T00:20:34;0.40;;;0.17;;
49015;SDS011;34830;44.064;12.566;2023-08-06T00:23:00;0.75;;;0.10;;
49015;SDS011;34830;44.064;12.566;2023-08-06T00:25:26;0.40;;;0.15;;
49015;SDS011;34830;44.064;12.566;2023-08-06T00:27:52;1.50;;;0.30;;
49015;SDS011;34830;44.064;12.566;2023-08-06T00:30:18;0.35;;;0.10;;
49015;SDS011;34830;44.064;12.566;2023-08-06T00:32:44;1.65;;;0.30;;
49015;SDS011;34830;44.064;12.566;2023-08-06T00:35:10;1.20;;;0.40;;
49015;SDS011;34830;44.064;12.566;2023-08-06T00:37:36;0.40;;;0.10;;
49015;SDS011;34830;44.064;12.566;2023-08-06T00:40:02;0.30;;;0.10;;
49015;SDS011;34830;44.064;12.566;2023-08-06T00:42:29;1.23;;;0.13;;
49015;SDS011;34830;44.064;12.566;2023-08-06T00:44:55;0.82;;;0.22;;
49015;SDS011;34830;44.064;12.566;2023-08-06T00:47:21;7.47;;;1.13;;
49015;SDS011;34830;44.064;12.566;2023-08-06T00:49:47;0.50;;;0.20;;
49015;SDS011;34830;44.064;12.566;2023-08-06T00:52:13;0.80;;;0.28;;
49015;SDS011;34830;44.064;12.566;2023-08-06T00:54:39;0.22;;;0.10;;
49015;SDS011;34830;44.064;12.566;2023-08-06T00:57:05;3.65;;;0.40;;
49015;SDS011;34830;44.064;12.566;2023-08-06T00:59:34;2.17;;;0.30;;
49015;SDS011;34830;44.064;12.566;2023-08-06T01:02:00;0.40;;;0.20;;
49015;SDS011;34830;44.064;12.566;2023-08-06T01:04:26;0.47;;;0.20;;
49015;SDS011;34830;44.064;12.566;2023-08-06T01:07:17;1.90;;;0.30;;
49015;SDS011;34830;44.064;12.566;2023-08-06T01:09:55;2.17;;;0.35;;
49015;SDS011;34830;44.064;12.566;2023-08-06T01:15:46;3.17;;;0.88;;
49015;SDS011;34830;44.064;12.566;2023-08-06T01:20:41;0.93;;;0.20;;
49015;SDS011;34830;44.064;12.566;2023-08-06T01:23:07;1.17;;;0.35;;
49015;SDS011;34830;44.064;12.566;2023-08-06T01:25:34;1.38;;;0.30;;
49015;SDS011;34830;44.064;12.566;2023-08-06T01:28:11;1.60;;;0.10;;
49015;SDS011;34830;44.064;12.566;2023-08-06T01:30:44;1.73;;;0.30;;
49015;SDS011;34830;44.064;12.566;2023-08-06T01:33:14;2.35;;;0.22;;
49015;SDS011;34830;44.064;12.566;2023-08-06T01:35:42;2.05;;;0.30;;
49015;SDS011;34830;44.064;12.566;2023-08-06T01:38:08;1.08;;;0.20;;
49015;SDS011;34830;44.064;12.566;2023-08-06T01:40:34;0.30;;;0.10;;
49015;SDS011;34830;44.064;12.566;2023-08-06T01:43:00;0.63;;;0.22;;
49015;SDS011;34830;44.064;12.566;2023-08-06T01:45:27;0.17;;;0.08;;
49015;SDS011;34830;44.064;12.566;2023-08-06T01:47:53;1.83;;;0.10;;
49015;SDS011;34830;44.064;12.566;2023-08-06T01:50:19;0.73;;;0.20;;
49015;SDS011;34830;44.064;12.566;2023-08-06T01:52:45;1.23;;;0.10;;
49015;SDS011;34830;44.064;12.566;2023-08-06T01:55:11;3.17;;;0.57;;
49015;SDS011;34830;44.064;12.566;2023-08-06T01:57:37;0.70;;;0.20;;
49015;SDS011;34830;44.064;12.566;2023-08-06T02:00:03;1.20;;;0.20;;
49015;SDS011;34830;44.064;12.566;2023-08-06T02:02:38;0.50;;;0.10;;
49015;SDS011;34830;44.064;12.566;2023-08-06T02:05:06;0.80;;;0.17;;
49015;SDS011;34830;44.064;12.566;2023-08-06T02:07:32;1.73;;;0.10;;
49015;SDS011;34830;44.064;12.566;2023-08-06T02:09:58;0.25;;;0.05;;
49015;SDS011;34830;44.064;12.566;2023-08-06T02:12:24;2.53;;;0.28;;
49015;SDS011;34830;44.064;12.566;2023-08-06T02:14:50;2.60;;;0.20;;
49015;SDS011;34830;44.064;12.566;2023-08-06T02:17:17;2.47;;;0.20;;
49015;SDS011;34830;44.064;12.566;2023-08-06T02:19:43;1.63;;;0.20;;
49015;SDS011;34830;44.064;12.566;2023-08-06T02:22:09;0.38;;;0.10;;
49015;SDS011;34830;44.064;12.566;2023-08-06T02:24:35;0.40;;;0.10;;
49015;SDS011;34830;44.064;12.566;2023-08-06T02:27:02;0.30;;;0.10;;
49015;SDS011;34830;44.064;12.566;2023-08-06T02:29:28;1.13;;;0.15;;
49015;SDS011;34830;44.064;12.566;2023-08-06T02:31:54;0.98;;;0.22;;
49015;SDS011;34830;44.064;12.566;2023-08-06T02:34:20;0.63;;;0.20;;
49015;SDS011;34830;44.064;12.566;2023-08-06T02:36:46;6.57;;;0.40;;
49015;SDS011;34830;44.064;12.566;2023-08-06T02:39:12;3.35;;;0.50;;
49015;SDS011;34830;44.064;12.566;2023-08-06T02:41:38;1.55;;;0.30;;
49015;SDS011;34830;44.064;12.566;2023-08-06T02:44:04;2.42;;;0.32;;
49015;SDS011;34830;44.064;12.566;2023-08-06T02:46:30;11.23;;;0.60;;
49015;SDS011;34830;44.064;12.566;2023-08-06T02:48:56;2.85;;;0.50;;
49015;SDS011;34830;44.064;12.566;2023-08-06T02:51:22;0.80;;;0.20;;
49015;SDS011;34830;44.064;12.566;2023-08-06T02:53:48;2.67;;;0.30;;
49015;SDS011;34830;44.064;12.566;2023-08-06T02:56:16;0.50;;;0.10;;
49015;SDS011;34830;44.064;12.566;2023-08-06T02:58:57;0.90;;;0.52;;
49015;SDS011;34830;44.064;12.566;2023-08-06T03:01:33;1.98;;;0.20;;
49015;SDS011;34830;44.064;12.566;2023-08-06T03:04:05;1.65;;;0.20;;
49015;SDS011;34830;44.064;12.566;2023-08-06T03:06:36;3.53;;;0.20;;
49015;SDS011;34830;44.064;12.566;2023-08-06T03:09:03;2.40;;;0.40;;
49015;SDS011;34830;44.064;12.566;2023-08-06T03:11:29;1.35;;;0.40;;
49015;SDS011;34830;44.064;12.566;2023-08-06T03:14:01;1.42;;;0.30;;
49015;SDS011;34830;44.064;12.566;2023-08-06T03:16:27;0.80;;;0.20;;
49015;SDS011;34830;44.064;12.566;2023-08-06T03:18:53;0.63;;;0.10;;
49015;SDS011;34830;44.064;12.566;2023-08-06T03:21:20;0.75;;;0.20;;
49015;SDS011;34830;44.064;12.566;2023-08-06T03:23:47;1.55;;;0.20;;
49015;SDS011;34830;44.064;12.566;2023-08-06T03:26:14;2.85;;;0.20;;
49015;SDS011;34830;44.064;12.566;2023-08-06T03:28:41;1.10;;;0.20;;
49015;SDS011;34830;44.064;12.566;2023-08-06T03:31:07;1.20;;;0.30;;
49015;SDS011;34830;44.064;12.566;2023-08-06T03:33:42;3.58;;;0.30;;
49015;SDS011;34830;44.064;12.566;2023-08-06T03:36:13;4.15;;;0.52;;
49015;SDS011;34830;44.064;12.566;2023-08-06T03:38:39;0.38;;;0.20;;
49015;SDS011;34830;44.064;12.566;2023-08-06T03:41:07;1.88;;;0.30;;
49015;SDS011;34830;44.064;12.566;2023-08-06T03:43:33;0.50;;;0.20;;
49015;SDS011;34830;44.064;12.566;2023-08-06T03:46:01;0.52;;;0.20;;
49015;SDS011;34830;44.064;12.566;2023-08-06T03:48:27;1.63;;;0.32;;
49015;SDS011;34830;44.064;12.566;2023-08-06T03:50:53;4.65;;;0.40;;
49015;SDS011;34830;44.064;12.566;2023-08-06T03:53:19;1.52;;;0.38;;
49015;SDS011;34830;44.064;12.566;2023-08-06T03:55:45;1.88;;;0.30;;
49015;SDS011;34830;44.064;12.566;2023-08-06T03:58:11;1.05;;;0.20;;
49015;SDS011;34830;44.064;12.566;2023-08-06T04:00:37;6.35;;;0.85;;
49015;SDS011;34830;44.064;12.566;2023-08-06T04:03:03;2.45;;;0.30;;
49015;SDS011;34830;44.064;12.566;2023-08-06T04:05:31;0.88;;;0.25;;
49015;SDS011;34830;44.064;12.566;2023-08-06T04:07:58;3.70;;;0.20;;
49015;SDS011;34830;44.064;12.566;2023-08-06T04:10:25;5.45;;;0.40;;
49015;SDS011;34830;44.064;12.566;2023-08-06T04:12:51;1.58;;;0.40;;
49015;SDS011;34830;44.064;12.566;2023-08-06T04:15:17;0.93;;;0.30;;
49015;SDS011;34830;44.064;12.566;2023-08-06T04:17:43;3.40;;;0.50;;
49015;SDS011;34830;44.064;12.566;2023-08-06T04:20:09;4.07;;;0.38;;
49015;SDS011;34830;44.064;12.566;2023-08-06T04:22:36;1.92;;;0.45;;
49015;SDS011;34830;44.064;12.566;2023-08-06T04:25:03;1.52;;;0.17;;
49015;SDS011;34830;44.064;12.566;2023-08-06T04:27:30;0.52;;;0.20;;
49015;SDS011;34830;44.064;12.566;2023-08-06T04:29:56;0.80;;;0.20;;
49015;SDS011;34830;44.064;12.566;2023-08-06T04:32:22;1.45;;;0.57;;
49015;SDS011;34830;44.064;12.566;2023-08-06T04:34:51;5.03;;;1.65;;
49015;SDS011;34830;44.064;12.566;2023-08-06T04:37:18;2.38;;;0.38;;
49015;SDS011;34830;44.064;12.566;2023-08-06T04:39:44;2.67;;;0.30;;
49015;SDS011;34830;44.064;12.566;2023-08-06T04:42:10;1.10;;;0.52;;
49015;SDS011;34830;44.064;12.566;2023-08-06T04:44:36;0.95;;;0.30;;
49015;SDS011;34830;44.064;12.566;2023-08-06T04:47:02;2.10;;;0.40;;
49015;SDS011;34830;44.064;12.566;2023-08-06T04:49:28;1.33;;;0.30;;
49015;SDS011;34830;44.064;12.566;2023-08-06T04:51:54;4.90;;;0.43;;
49015;SDS011;34830;44.064;12.566;2023-08-06T04:54:20;3.17;;;0.40;;
49015;SDS011;34830;44.064;12.566;2023-08-06T04:56:47;4.55;;;0.52;;
49015;SDS011;34830;44.064;12.566;2023-08-06T04:59:13;3.55;;;0.30;;
49015;SDS011;34830;44.064;12.566;2023-08-06T05:01:39;4.43;;;0.30;;
49015;SDS011;34830;44.064;12.566;2023-08-06T05:04:05;1.05;;;0.30;;
49015;SDS011;34830;44.064;12.566;2023-08-06T05:06:31;0.55;;;0.20;;
49015;SDS011;34830;44.064;12.566;2023-08-06T05:08:57;4.45;;;0.55;;
49015;SDS011;34830;44.064;12.566;2023-08-06T05:11:24;4.82;;;0.77;;
49015;SDS011;34830;44.064;12.566;2023-08-06T05:13:50;3.05;;;0.35;;
49015;SDS011;34830;44.064;12.566;2023-08-06T05:16:16;1.33;;;0.30;;
49015;SDS011;34830;44.064;12.566;2023-08-06T05:18:42;2.25;;;0.43;;
49015;SDS011;34830;44.064;12.566;2023-08-06T05:21:08;2.53;;;0.30;;
49015;SDS011;34830;44.064;12.566;2023-08-06T05:23:34;3.00;;;0.32;;
49015;SDS011;34830;44.064;12.566;2023-08-06T05:26:00;1.50;;;0.40;;
49015;SDS011;34830;44.064;12.566;2023-08-06T05:28:26;0.90;;;0.20;;
49015;SDS011;34830;44.064;12.566;2023-08-06T05:30:52;0.98;;;0.30;;
49015;SDS011;34830;44.064;12.566;2023-08-06T05:33:18;0.70;;;0.10;;
49015;SDS011;34830;44.064;12.566;2023-08-06T05:35:45;0.98;;;0.40;;
49015;SDS011;34830;44.064;12.566;2023-08-06T05:38:12;2.22;;;0.30;;
49015;SDS011;34830;44.064;12.566;2023-08-06T05:40:38;0.88;;;0.30;;
49015;SDS011;34830;44.064;12.566;2023-08-06T05:43:04;1.35;;;0.30;;
49015;SDS011;34830;44.064;12.566;2023-08-06T05:45:30;3.17;;;0.47;;
49015;SDS011;34830;44.064;12.566;2023-08-06T05:47:57;2.25;;;0.52;;
49015;SDS011;34830;44.064;12.566;2023-08-06T05:50:23;3.95;;;0.77;;
49015;SDS011;34830;44.064;12.566;2023-08-06T05:52:50;4.18;;;0.55;;
49015;SDS011;34830;44.064;12.566;2023-08-06T05:55:17;2.13;;;0.45;;
49015;SDS011;34830;44.064;12.566;2023-08-06T05:57:44;3.08;;;0.75;;
49015;SDS011;34830;44.064;12.566;2023-08-06T06:00:10;3.05;;;0.50;;
49015;SDS011;34830;44.064;12.566;2023-08-06T06:02:40;7.88;;;0.60;;
49015;SDS011;34830;44.064;12.566;2023-08-06T06:05:06;7.30;;;0.60;;
49015;SDS011;34830;44.064;12.566;2023-08-06T06:07:32;1.90;;;0.35;;
49015;SDS011;34830;44.064;12.566;2023-08-06T06:09:58;0.90;;;0.25;;
49015;SDS011;34830;44.064;12.566;2023-08-06T06:12:24;4.28;;;0.40;;
49015;SDS011;34830;44.064;12.566;2023-08-06T06:14:51;1.67;;;0.60;;
49015;SDS011;34830;44.064;12.566;2023-08-06T06:17:17;10.07;;;0.50;;
49015;SDS011;34830;44.064;12.566;2023-08-06T06:19:43;1.17;;;0.32;;
49015;SDS011;34830;44.064;12.566;2023-08-06T06:22:09;1.05;;;0.15;;
49015;SDS011;34830;44.064;12.566;2023-08-06T06:24:35;0.88;;;0.20;;
49015;SDS011;34830;44.064;12.566;2023-08-06T06:27:02;2.65;;;0.28;;
49015;SDS011;34830;44.064;12.566;2023-08-06T06:29:28;4.45;;;0.20;;
49015;SDS011;34830;44.064;12.566;2023-08-06T06:31:54;3.60;;;0.30;;
49015;SDS011;34830;44.064;12.566;2023-08-06T06:34:20;2.40;;;0.20;;
49015;SDS011;34830;44.064;12.566;2023-08-06T06:36:46;3.17;;;0.45;;
49015;SDS011;34830;44.064;12.566;2023-08-06T06:39:12;1.20;;;0.50;;
49015;SDS011;34830;44.064;12.566;2023-08-06T06:41:38;1.42;;;0.30;;
49015;SDS011;34830;44.064;12.566;2023-08-06T06:44:11;3.72;;;0.60;;
49015;SDS011;34830;44.064;12.566;2023-08-06T06:46:37;1.00;;;0.30;;
49015;SDS011;34830;44.064;12.566;2023-08-06T06:49:03;1.52;;;0.30;;
49015;SDS011;34830;44.064;12.566;2023-08-06T06:51:29;1.48;;;0.30;;
49015;SDS011;34830;44.064;12.566;2023-08-06T06:53:57;3.70;;;0.30;;
49015;SDS011;34830;44.064;12.566;2023-08-06T06:56:23;0.85;;;0.30;;
49015;SDS011;34830;44.064;12.566;2023-08-06T06:58:49;1.80;;;0.30;;
49015;SDS011;34830;44.064;12.566;2023-08-06T07:01:15;0.70;;;0.10;;
49015;SDS011;34830;44.064;12.566;2023-08-06T07:03:41;1.40;;;0.38;;
49015;SDS011;34830;44.064;12.566;2023-08-06T07:06:07;4.40;;;0.32;;
49015;SDS011;34830;44.064;12.566;2023-08-06T07:08:33;5.05;;;0.38;;
49015;SDS011;34830;44.064;12.566;2023-08-06T07:11:01;1.17;;;0.30;;
49015;SDS011;34830;44.064;12.566;2023-08-06T07:13:30;2.58;;;0.90;;
49015;SDS011;34830;44.064;12.566;2023-08-06T07:15:57;3.33;;;0.40;;
49015;SDS011;34830;44.064;12.566;2023-08-06T07:18:23;1.20;;;0.38;;
49015;SDS011;34830;44.064;12.566;2023-08-06T07:20:50;0.68;;;0.20;;
49015;SDS011;34830;44.064;12.566;2023-08-06T07:23:17;1.17;;;0.28;;
49015;SDS011;34830;44.064;12.566;2023-08-06T07:25:44;2.38;;;0.30;;
49015;SDS011;34830;44.064;12.566;2023-08-06T07:28:10;2.53;;;0.30;;
49015;SDS011;34830;44.064;12.566;2023-08-06T07:30:42;1.70;;;0.60;;
49015;SDS011;34830;44.064;12.566;2023-08-06T07:33:09;0.70;;;0.30;;
49015;SDS011;34830;44.064;12.566;2023-08-06T07:35:35;0.90;;;0.28;;
49015;SDS011;34830;44.064;12.566;2023-08-06T07:38:02;0.75;;;0.25;;
49015;SDS011;34830;44.064;12.566;2023-08-06T07:40:28;1.65;;;0.30;;
49015;SDS011;34830;44.064;12.566;2023-08-06T07:42:54;3.40;;;0.50;;
49015;SDS011;34830;44.064;12.566;2023-08-06T07:45:21;1.52;;;0.20;;
49015;SDS011;34830;44.064;12.566;2023-08-06T07:47:47;0.85;;;0.10;;
49015;SDS011;34830;44.064;12.566;2023-08-06T07:50:13;3.55;;;0.28;;
49015;SDS011;34830;44.064;12.566;2023-08-06T07:52:39;1.80;;;0.30;;
49015;SDS011;34830;44.064;12.566;2023-08-06T07:55:05;2.13;;;0.40;;
49015;SDS011;34830;44.064;12.566;2023-08-06T07:57:32;0.70;;;0.20;;
49015;SDS011;34830;44.064;12.566;2023-08-06T07:59:59;1.42;;;0.25;;
49015;SDS011;34830;44.064;12.566;2023-08-06T08:02:26;0.98;;;0.30;;
49015;SDS011;34830;44.064;12.566;2023-08-06T08:04:52;2.05;;;0.60;;
49015;SDS011;34830;44.064;12.566;2023-08-06T08:07:18;2.17;;;0.40;;
49015;SDS011;34830;44.064;12.566;2023-08-06T08:09:44;2.22;;;0.35;;
49015;SDS011;34830;44.064;12.566;2023-08-06T08:12:10;2.90;;;0.30;;
49015;SDS011;34830;44.064;12.566;2023-08-06T08:14:36;0.88;;;0.30;;
49015;SDS011;34830;44.064;12.566;2023-08-06T08:17:02;1.20;;;0.40;;
49015;SDS011;34830;44.064;12.566;2023-08-06T08:19:29;1.38;;;0.20;;
49015;SDS011;34830;44.064;12.566;2023-08-06T08:21:55;1.35;;;0.30;;
49015;SDS011;34830;44.064;12.566;2023-08-06T08:24:22;1.20;;;0.40;;
49015;SDS011;34830;44.064;12.566;2023-08-06T08:26:51;2.50;;;0.73;;
49015;SDS011;34830;44.064;12.566;2023-08-06T08:29:19;1.88;;;0.20;;
49015;SDS011;34830;44.064;12.566;2023-08-06T08:31:45;0.68;;;0.20;;
49015;SDS011;34830;44.064;12.566;2023-08-06T08:34:13;3.17;;;0.30;;
49015;SDS011;34830;44.064;12.566;2023-08-06T08:36:39;2.35;;;0.30;;
49015;SDS011;34830;44.064;12.566;2023-08-06T08:39:05;0.88;;;0.45;;
49015;SDS011;34830;44.064;12.566;2023-08-06T08:41:32;1.33;;;0.25;;
49015;SDS011;34830;44.064;12.566;2023-08-06T08:43:59;3.05;;;0.43;;
49015;SDS011;34830;44.064;12.566;2023-08-06T08:46:26;0.98;;;0.20;;
49015;SDS011;34830;44.064;12.566;2023-08-06T08:48:53;0.82;;;0.10;;
49015;SDS011;34830;44.064;12.566;2023-08-06T08:51:20;1.38;;;0.20;;
49015;SDS011;34830;44.064;12.566;2023-08-06T08:53:46;0.75;;;0.10;;
49015;SDS011;34830;44.064;12.566;2023-08-06T08:56:13;1.45;;;0.63;;
49015;SDS011;34830;44.064;12.566;2023-08-06T08:58:40;1.20;;;0.55;;
49015;SDS011;34830;44.064;12.566;2023-08-06T09:01:07;1.38;;;0.40;;
49015;SDS011;34830;44.064;12.566;2023-08-06T09:03:33;2.63;;;0.50;;
49015;SDS011;34830;44.064;12.566;2023-08-06T09:05:59;4.15;;;0.30;;
49015;SDS011;34830;44.064;12.566;2023-08-06T09:08:27;1.63;;;0.40;;
49015;SDS011;34830;44.064;12.566;2023-08-06T09:10:55;1.13;;;0.30;;
49015;SDS011;34830;44.064;12.566;2023-08-06T09:13:22;0.45;;;0.20;;
49015;SDS011;34830;44.064;12.566;2023-08-06T09:15:49;3.15;;;0.32;;
49015;SDS011;34830;44.064;12.566;2023-08-06T09:18:24;0.40;;;0.10;;
49015;SDS011;34830;44.064;12.566;2023-08-06T09:20:51;1.38;;;0.30;;
49015;SDS011;34830;44.064;12.566;2023-08-06T09:23:18;2.58;;;0.40;;
49015;SDS011;34830;44.064;12.566;2023-08-06T09:25:47;1.42;;;0.50;;
49015;SDS011;34830;44.064;12.566;2023-08-06T09:28:13;1.55;;;0.57;;
49015;SDS011;34830;44.064;12.566;2023-08-06T09:30:39;2.42;;;0.70;;
49015;SDS011;34830;44.064;12.566;2023-08-06T09:33:08;2.00;;;0.82;;
49015;SDS011;34830;44.064;12.566;2023-08-06T09:35:38;2.50;;;0.47;;
49015;SDS011;34830;44.064;12.566;2023-08-06T09:38:08;3.47;;;0.70;;
49015;SDS011;34830;44.064;12.566;2023-08-06T09:40:36;1.20;;;0.60;;
49015;SDS011;34830;44.064;12.566;2023-08-06T09:43:02;5.07;;;0.50;;
49015;SDS011;34830;44.064;12.566;2023-08-06T09:45:33;3.40;;;1.00;;
49015;SDS011;34830;44.064;12.566;2023-08-06T09:48:03;2.55;;;0.68;;
49015;SDS011;34830;44.064;12.566;2023-08-06T09:50:31;2.22;;;0.50;;
49015;SDS011;34830;44.064;12.566;2023-08-06T09:52:58;1.35;;;0.50;;
49015;SDS011;34830;44.064;12.566;2023-08-06T09:55:26;1.70;;;0.30;;
49015;SDS011;34830;44.064;12.566;2023-08-06T09:57:52;1.05;;;0.55;;
49015;SDS011;34830;44.064;12.566;2023-08-06T10:00:19;0.77;;;0.25;;
49015;SDS011;34830;44.064;12.566;2023-08-06T10:02:46;4.13;;;0.57;;
49015;SDS011;34830;44.064;12.566;2023-08-06T10:05:14;3.10;;;0.45;;
49015;SDS011;34830;44.064;12.566;2023-08-06T10:07:41;2.25;;;0.32;;
49015;SDS011;34830;44.064;12.566;2023-08-06T10:10:09;3.17;;;0.85;;
49015;SDS011;34830;44.064;12.566;2023-08-06T10:12:54;1.33;;;0.40;;
49015;SDS011;34830;44.064;12.566;2023-08-06T10:15:25;2.33;;;0.50;;
49015;SDS011;34830;44.064;12.566;2023-08-06T10:17:52;0.93;;;0.30;;
49015;SDS011;34830;44.064;12.566;2023-08-06T10:20:21;1.70;;;0.70;;
49015;SDS011;34830;44.064;12.566;2023-08-06T10:23:04;1.38;;;0.40;;
49015;SDS011;34830;44.064;12.566;2023-08-06T10:25:33;2.28;;;0.50;;
49015;SDS011;34830;44.064;12.566;2023-08-06T10:28:00;2.08;;;0.65;;
49015;SDS011;34830;44.064;12.566;2023-08-06T10:30:27;1.58;;;0.50;;
49015;SDS011;34830;44.064;12.566;2023-08-06T10:33:03;2.55;;;0.50;;
49015;SDS011;34830;44.064;12.566;2023-08-06T10:41:03;4.13;;;0.60;;
49015;SDS011;34830;44.064;12.566;2023-08-06T10:43:31;4.18;;;0.40;;
49015;SDS011;34830;44.064;12.566;2023-08-06T10:45:58;1.63;;;0.30;;
49015;SDS011;34830;44.064;12.566;2023-08-06T10:48:35;1.77;;;0.82;;
49015;SDS011;34830;44.064;12.566;2023-08-06T10:51:03;3.28;;;0.40;;
49015;SDS011;34830;44.064;12.566;2023-08-06T10:53:31;2.55;;;0.40;;
49015;SDS011;34830;44.064;12.566;2023-08-06T10:55:57;2.42;;;0.70;;
49015;SDS011;34830;44.064;12.566;2023-08-06T10:58:23;3.72;;;0.65;;
49015;SDS011;34830;44.064;12.566;2023-08-06T11:00:49;1.98;;;0.70;;
49015;SDS011;34830;44.064;12.566;2023-08-06T11:03:15;1.60;;;0.45;;
49015;SDS011;34830;44.064;12.566;2023-08-06T11:05:47;1.45;;;0.55;;
49015;SDS011;34830;44.064;12.566;2023-08-06T11:08:23;1.58;;;0.45;;
49015;SDS011;34830;44.064;12.566;2023-08-06T11:10:52;9.55;;;1.13;;
49015;SDS011;34830;44.064;12.566;2023-08-06T11:13:22;2.05;;;0.47;;
49015;SDS011;34830;44.064;12.566;2023-08-06T11:15:48;4.07;;;1.27;;
49015;SDS011;34830;44.064;12.566;2023-08-06T11:18:14;3.47;;;0.70;;
49015;SDS011;34830;44.064;12.566;2023-08-06T11:20:40;3.03;;;0.85;;
49015;SDS011;34830;44.064;12.566;2023-08-06T11:23:09;2.35;;;0.52;;
49015;SDS011;34830;44.064;12.566;2023-08-06T11:25:43;4.35;;;0.50;;
49015;SDS011;34830;44.064;12.566;2023-08-06T11:28:11;1.35;;;0.50;;
49015;SDS011;34830;44.064;12.566;2023-08-06T11:30:37;4.18;;;0.70;;
49015;SDS011;34830;44.064;12.566;2023-08-06T11:33:06;2.80;;;0.75;;
49015;SDS011;34830;44.064;12.566;2023-08-06T11:35:36;3.05;;;0.65;;
49015;SDS011;34830;44.064;12.566;2023-08-06T11:38:02;3.15;;;0.60;;
49015;SDS011;34830;44.064;12.566;2023-08-06T11:40:28;4.00;;;0.68;;
49015;SDS011;34830;44.064;12.566;2023-08-06T11:42:54;2.03;;;0.77;;
49015;SDS011;34830;44.064;12.566;2023-08-06T11:45:22;3.45;;;0.65;;
49015;SDS011;34830;44.064;12.566;2023-08-06T11:47:51;6.68;;;1.02;;
49015;SDS011;34830;44.064;12.566;2023-08-06T11:50:21;5.03;;;0.82;;
49015;SDS011;34830;44.064;12.566;2023-08-06T11:52:48;3.72;;;0.80;;
49015;SDS011;34830;44.064;12.566;2023-08-06T11:55:22;3.22;;;0.75;;
49015;SDS011;34830;44.064;12.566;2023-08-06T11:57:49;2.97;;;0.70;;
49015;SDS011;34830;44.064;12.566;2023-08-06T12:00:15;3.28;;;0.73;;
49015;SDS011;34830;44.064;12.566;2023-08-06T12:02:44;2.53;;;0.70;;
49015;SDS011;34830;44.064;12.566;2023-08-06T12:05:11;3.13;;;0.85;;
49015;SDS011;34830;44.064;12.566;2023-08-06T12:07:38;5.60;;;0.90;;
49015;SDS011;34830;44.064;12.566;2023-08-06T12:10:08;3.28;;;0.60;;
49015;SDS011;34830;44.064;12.566;2023-08-06T12:12:34;3.05;;;0.50;;
49015;SDS011;34830;44.064;12.566;2023-08-06T12:15:01;2.75;;;0.70;;
49015;SDS011;34830;44.064;12.566;2023-08-06T12:17:28;7.00;;;0.90;;
49015;SDS011;34830;44.064;12.566;2023-08-06T12:19:54;3.53;;;0.57;;
49015;SDS011;34830;44.064;12.566;2023-08-06T12:22:20;2.55;;;1.00;;
49015;SDS011;34830;44.064;12.566;2023-08-06T12:24:46;2.33;;;0.65;;
49015;SDS011;34830;44.064;12.566;2023-08-06T12:27:13;2.03;;;0.68;;
49015;SDS011;34830;44.064;12.566;2023-08-06T12:29:43;2.85;;;0.80;;
49015;SDS011;34830;44.064;12.566;2023-08-06T12:32:10;2.25;;;0.63;;
49015;SDS011;34830;44.064;12.566;2023-08-06T12:34:40;4.05;;;0.77;;
49015;SDS011;34830;44.064;12.566;2023-08-06T12:37:06;5.18;;;1.10;;
49015;SDS011;34830;44.064;12.566;2023-08-06T12:39:33;3.03;;;1.00;;
49015;SDS011;34830;44.064;12.566;2023-08-06T12:42:00;2.22;;;0.80;;
49015;SDS011;34830;44.064;12.566;2023-08-06T12:44:27;4.18;;;0.90;;
49015;SDS011;34830;44.064;12.566;2023-08-06T12:46:53;2.13;;;0.60;;
49015;SDS011;34830;44.064;12.566;2023-08-06T12:49:20;5.88;;;0.60;;
49015;SDS011;34830;44.064;12.566;2023-08-06T12:51:49;7.05;;;0.90;;
49015;SDS011;34830;44.064;12.566;2023-08-06T12:54:16;3.53;;;0.88;;
49015;SDS011;34830;44.064;12.566;2023-08-06T12:56:43;2.25;;;0.68;;
49015;SDS011;34830;44.064;12.566;2023-08-06T12:59:10;3.25;;;0.70;;
49015;SDS011;34830;44.064;12.566;2023-08-06T13:01:37;2.30;;;0.65;;
49015;SDS011;34830;44.064;12.566;2023-08-06T13:04:04;4.18;;;0.80;;
49015;SDS011;34830;44.064;12.566;2023-08-06T13:06:30;5.53;;;0.73;;
49015;SDS011;34830;44.064;12.566;2023-08-06T13:09:01;2.63;;;0.75;;
49015;SDS011;34830;44.064;12.566;2023-08-06T13:11:31;3.25;;;0.63;;
49015;SDS011;34830;44.064;12.566;2023-08-06T13:14:04;4.50;;;0.60;;
49015;SDS011;34830;44.064;12.566;2023-08-06T13:16:36;3.95;;;0.75;;
49015;SDS011;34830;44.064;12.566;2023-08-06T13:19:03;3.58;;;0.50;;
49015;SDS011;34830;44.064;12.566;2023-08-06T13:21:33;4.45;;;1.60;;
49015;SDS011;34830;44.064;12.566;2023-08-06T13:24:01;4.68;;;0.88;;
49015;SDS011;34830;44.064;12.566;2023-08-06T13:26:30;4.35;;;0.80;;
49015;SDS011;34830;44.064;12.566;2023-08-06T13:28:59;1.88;;;0.70;;
49015;SDS011;34830;44.064;12.566;2023-08-06T13:31:26;1.20;;;0.50;;
49015;SDS011;34830;44.064;12.566;2023-08-06T13:33:56;2.03;;;0.63;;
49015;SDS011;34830;44.064;12.566;2023-08-06T13:36:24;4.28;;;0.93;;
49015;SDS011;34830;44.064;12.566;2023-08-06T13:38:53;3.03;;;0.50;;
49015;SDS011;34830;44.064;12.566;2023-08-06T13:41:19;4.10;;;0.80;;
49015;SDS011;34830;44.064;12.566;2023-08-06T13:43:45;2.60;;;0.50;;
49015;SDS011;34830;44.064;12.566;2023-08-06T13:46:12;4.78;;;0.90;;
49015;SDS011;34830;44.064;12.566;2023-08-06T13:48:44;2.03;;;0.50;;
49015;SDS011;34830;44.064;12.566;2023-08-06T13:51:11;5.65;;;0.70;;
49015;SDS011;34830;44.064;12.566;2023-08-06T13:53:40;1.75;;;0.60;;
49015;SDS011;34830;44.064;12.566;2023-08-06T13:56:07;3.45;;;0.80;;
49015;SDS011;34830;44.064;12.566;2023-08-06T13:58:35;2.28;;;0.65;;
49015;SDS011;34830;44.064;12.566;2023-08-06T14:01:01;6.20;;;0.60;;
49015;SDS011;34830;44.064;12.566;2023-08-06T14:03:27;3.80;;;0.90;;
49015;SDS011;34830;44.064;12.566;2023-08-06T14:05:53;4.00;;;0.55;;
49015;SDS011;34830;44.064;12.566;2023-08-06T14:08:23;2.25;;;0.60;;
49015;SDS011;34830;44.064;12.566;2023-08-06T14:10:50;2.33;;;0.68;;
49015;SDS011;34830;44.064;12.566;2023-08-06T14:13:16;2.25;;;0.80;;
49015;SDS011;34830;44.064;12.566;2023-08-06T14:15:43;3.45;;;0.65;;
49015;SDS011;34830;44.064;12.566;2023-08-06T14:18:12;4.15;;;0.60;;
49015;SDS011;34830;44.064;12.566;2023-08-06T14:20:40;2.70;;;0.57;;
49015;SDS011;34830;44.064;12.566;2023-08-06T14:23:06;4.10;;;0.80;;
49015;SDS011;34830;44.064;12.566;2023-08-06T14:25:32;4.15;;;1.00;;
49015;SDS011;34830;44.064;12.566;2023-08-06T14:27:58;4.07;;;0.70;;
49015;SDS011;34830;44.064;12.566;2023-08-06T14:30:25;3.15;;;1.00;;
49015;SDS011;34830;44.064;12.566;2023-08-06T14:32:51;4.93;;;1.30;;
49015;SDS011;34830;44.064;12.566;2023-08-06T14:35:17;8.90;;;1.55;;
49015;SDS011;34830;44.064;12.566;2023-08-06T14:37:43;3.95;;;1.83;;
49015;SDS011;34830;44.064;12.566;2023-08-06T14:40:11;5.75;;;2.00;;
49015;SDS011;34830;44.064;12.566;2023-08-06T14:42:37;4.57;;;2.15;;
49015;SDS011;34830;44.064;12.566;2023-08-06T14:45:03;7.68;;;1.67;;